createdAt,value
2018-05-29T00:00:50.599Z,1009.08
2018-05-29T00:01:50.579Z,1009.09
2018-05-29T00:02:50.568Z,1009.12
2018-05-29T00:03:50.559Z,1009.12
2018-05-29T00:04:50.547Z,1009.14
2018-05-29T00:05:50.531Z,1009.16
2018-05-29T00:06:50.520Z,1009.17
2018-05-29T00:07:50.507Z,1009.21
2018-05-29T00:08:50.500Z,1009.18
2018-05-29T00:09:50.483Z,1009.18
2018-05-29T00:10:50.473Z,1009.18
2018-05-29T00:11:50.458Z,1009.17
2018-05-29T00:12:50.447Z,1009.20
2018-05-29T00:13:50.436Z,1009.16
2018-05-29T00:14:50.422Z,1009.20
2018-05-29T00:15:50.408Z,1009.18
2018-05-29T00:16:50.398Z,1009.19
2018-05-29T00:17:50.385Z,1009.20
2018-05-29T00:18:50.372Z,1009.15
2018-05-29T00:19:50.360Z,1009.11
2018-05-29T00:20:50.350Z,1009.13
2018-05-29T00:21:50.335Z,1009.13
2018-05-29T00:22:50.324Z,1009.09
2018-05-29T00:23:50.312Z,1009.10
2018-05-29T00:24:50.304Z,1009.10
2018-05-29T00:25:50.287Z,1009.13
2018-05-29T00:26:50.273Z,1009.12
2018-05-29T00:27:50.262Z,1009.07
2018-05-29T00:28:50.252Z,1009.08
2018-05-29T00:29:50.240Z,1009.09
2018-05-29T00:30:50.227Z,1009.12
2018-05-29T00:31:50.212Z,1009.08
2018-05-29T00:32:50.198Z,1009.05
2018-05-29T00:33:50.189Z,1009.07
2018-05-29T00:34:50.176Z,1009.01
2018-05-29T00:35:50.165Z,1009.04
2018-05-29T00:36:50.151Z,1009.02
2018-05-29T00:37:50.140Z,1009.02
2018-05-29T00:38:50.129Z,1009.02
2018-05-29T00:39:50.115Z,1009.03
2018-05-29T00:40:50.103Z,1009.03
2018-05-29T00:41:50.092Z,1009.04
2018-05-29T00:42:50.076Z,1009.06
2018-05-29T00:43:50.066Z,1009.00
2018-05-29T00:44:50.054Z,1009.05
2018-05-29T00:45:50.043Z,1009.06
2018-05-29T00:46:50.030Z,1009.02
2018-05-29T00:47:50.020Z,1009.08
2018-05-29T00:48:50.003Z,1009.06
2018-05-29T00:49:49.992Z,1009.04
2018-05-29T00:50:49.979Z,1009.04
2018-05-29T00:51:49.967Z,1009.05
2018-05-29T00:52:49.955Z,1009.04
2018-05-29T00:53:49.941Z,1009.01
2018-05-29T00:54:49.930Z,1009.02
2018-05-29T00:55:49.918Z,1008.99
2018-05-29T00:56:49.907Z,1009.03
2018-05-29T00:57:49.893Z,1009.00
2018-05-29T00:58:49.880Z,1008.98
2018-05-29T00:59:49.868Z,1008.99
2018-05-29T01:00:49.857Z,1008.97
2018-05-29T01:01:49.844Z,1009.01
2018-05-29T01:02:49.831Z,1008.97
2018-05-29T01:03:49.820Z,1008.96
2018-05-29T01:04:49.814Z,1008.99
2018-05-29T01:05:49.795Z,1008.98
2018-05-29T01:06:49.786Z,1008.94
2018-05-29T01:07:49.770Z,1008.98
2018-05-29T01:08:49.760Z,1008.90
2018-05-29T01:09:49.749Z,1008.93
2018-05-29T01:10:49.735Z,1008.94
2018-05-29T01:11:49.721Z,1008.95
2018-05-29T01:12:49.711Z,1008.95
2018-05-29T01:13:49.696Z,1008.92
2018-05-29T01:14:49.684Z,1008.91
2018-05-29T01:15:49.672Z,1008.92
2018-05-29T01:16:49.662Z,1008.93
2018-05-29T01:17:49.647Z,1008.92
2018-05-29T01:18:49.633Z,1008.91
2018-05-29T01:19:49.622Z,1008.91
2018-05-29T01:20:49.613Z,1008.95
2018-05-29T01:21:49.599Z,1008.92
2018-05-29T01:22:49.587Z,1008.93
2018-05-29T01:23:49.577Z,1008.89
2018-05-29T01:24:49.564Z,1008.91
2018-05-29T01:25:49.549Z,1008.87
2018-05-29T01:26:49.537Z,1008.86
2018-05-29T01:27:49.523Z,1008.89
2018-05-29T01:28:49.514Z,1008.86
2018-05-29T01:29:49.501Z,1008.86
2018-05-29T01:30:49.489Z,1008.85
2018-05-29T01:31:49.475Z,1008.86
2018-05-29T01:32:49.467Z,1008.83
2018-05-29T01:33:49.450Z,1008.82
2018-05-29T01:34:49.439Z,1008.82
2018-05-29T01:35:49.427Z,1008.81
2018-05-29T01:36:49.413Z,1008.82
2018-05-29T01:37:49.401Z,1008.81
2018-05-29T01:38:49.388Z,1008.81
2018-05-29T01:39:49.376Z,1008.82
2018-05-29T01:40:49.364Z,1008.80
2018-05-29T01:41:49.352Z,1008.77
2018-05-29T01:42:49.340Z,1008.81
2018-05-29T01:43:49.327Z,1008.83
2018-05-29T01:44:49.316Z,1008.82
2018-05-29T01:45:49.302Z,1008.75
2018-05-29T01:46:49.292Z,1008.76
2018-05-29T01:47:49.281Z,1008.76
2018-05-29T01:48:49.266Z,1008.76
2018-05-29T01:49:49.253Z,1008.76
2018-05-29T01:50:49.241Z,1008.78
2018-05-29T01:51:49.228Z,1008.72
2018-05-29T01:52:49.216Z,1008.75
2018-05-29T01:53:49.206Z,1008.72
2018-05-29T01:54:49.198Z,1008.70
2018-05-29T01:55:49.178Z,1008.74
2018-05-29T01:56:49.168Z,1008.77
2018-05-29T01:57:49.154Z,1008.74
2018-05-29T01:58:49.143Z,1008.77
2018-05-29T01:59:49.134Z,1008.79
2018-05-29T02:00:49.118Z,1008.75
2018-05-29T02:01:49.104Z,1008.74
2018-05-29T02:02:49.093Z,1008.73
2018-05-29T02:03:49.084Z,1008.71
2018-05-29T02:04:49.069Z,1008.73
2018-05-29T02:05:49.056Z,1008.65
2018-05-29T02:06:49.044Z,1008.63
2018-05-29T02:07:49.032Z,1008.62
2018-05-29T02:08:49.020Z,1008.55
2018-05-29T02:09:49.009Z,1008.59
2018-05-29T02:10:48.993Z,1008.53
2018-05-29T02:11:48.980Z,1008.50
2018-05-29T02:12:48.975Z,1008.53
2018-05-29T02:13:48.963Z,1008.50
2018-05-29T02:14:48.945Z,1008.48
2018-05-29T02:15:48.932Z,1008.50
2018-05-29T02:16:48.921Z,1008.49
2018-05-29T02:17:48.908Z,1008.46
2018-05-29T02:18:48.893Z,1008.50
2018-05-29T02:19:48.884Z,1008.48
2018-05-29T02:20:48.872Z,1008.50
2018-05-29T02:21:48.858Z,1008.49
2018-05-29T02:22:48.847Z,1008.42
2018-05-29T02:23:48.832Z,1008.41
2018-05-29T02:24:48.820Z,1008.37
2018-05-29T02:25:48.808Z,1008.38
2018-05-29T02:26:48.797Z,1008.36
2018-05-29T02:27:48.784Z,1008.34
2018-05-29T02:28:48.773Z,1008.31
2018-05-29T02:29:48.764Z,1008.35
2018-05-29T02:30:48.749Z,1008.34
2018-05-29T02:31:48.736Z,1008.38
2018-05-29T02:32:48.724Z,1008.37
2018-05-29T02:33:48.714Z,1008.38
2018-05-29T02:34:48.698Z,1008.38
2018-05-29T02:35:48.686Z,1008.38
2018-05-29T02:36:48.676Z,1008.35
2018-05-29T02:37:48.662Z,1008.38
2018-05-29T02:38:48.652Z,1008.39
2018-05-29T02:39:48.637Z,1008.40
2018-05-29T02:40:48.627Z,1008.38
2018-05-29T02:41:48.610Z,1008.39
2018-05-29T02:42:48.598Z,1008.35
2018-05-29T02:43:48.587Z,1008.40
2018-05-29T02:44:48.572Z,1008.34
2018-05-29T02:45:48.563Z,1008.31
2018-05-29T02:46:48.549Z,1008.32
2018-05-29T02:47:48.539Z,1008.33
2018-05-29T02:48:48.528Z,1008.33
2018-05-29T02:49:48.512Z,1008.30
2018-05-29T02:50:48.506Z,1008.29
2018-05-29T02:51:48.488Z,1008.28
2018-05-29T02:52:48.475Z,1008.29
2018-05-29T02:53:48.461Z,1008.28
2018-05-29T02:54:48.453Z,1008.29
2018-05-29T02:55:48.436Z,1008.27
2018-05-29T02:56:48.425Z,1008.28
2018-05-29T02:57:48.411Z,1008.24
2018-05-29T02:58:48.401Z,1008.27
2018-05-29T02:59:48.380Z,1008.24
2018-05-29T03:00:48.376Z,1008.22
2018-05-29T03:01:48.366Z,1008.25
2018-05-29T03:02:48.354Z,1008.24
2018-05-29T03:03:48.339Z,1008.22
2018-05-29T03:04:48.329Z,1008.21
2018-05-29T03:05:48.311Z,1008.18
2018-05-29T03:06:48.300Z,1008.17
2018-05-29T03:07:48.292Z,1008.16
2018-05-29T03:08:48.278Z,1008.17
2018-05-29T03:09:48.265Z,1008.22
2018-05-29T03:10:48.253Z,1008.18
2018-05-29T03:11:48.243Z,1008.15
2018-05-29T03:12:48.228Z,1008.19
2018-05-29T03:13:48.214Z,1008.19
2018-05-29T03:14:48.208Z,1008.19
2018-05-29T03:15:48.193Z,1008.17
2018-05-29T03:16:48.180Z,1008.13
2018-05-29T03:17:48.165Z,1008.17
2018-05-29T03:18:48.155Z,1008.15
2018-05-29T03:19:48.141Z,1008.14
2018-05-29T03:20:48.128Z,1008.14
2018-05-29T03:21:48.114Z,1008.15
2018-05-29T03:22:48.102Z,1008.18
2018-05-29T03:23:48.090Z,1008.14
2018-05-29T03:24:48.078Z,1008.16
2018-05-29T03:25:48.066Z,1008.17
2018-05-29T03:26:48.055Z,1008.17
2018-05-29T03:27:48.043Z,1008.21
2018-05-29T03:28:48.030Z,1008.18
2018-05-29T03:29:48.016Z,1008.18
2018-05-29T03:30:48.005Z,1008.20
2018-05-29T03:31:47.991Z,1008.21
2018-05-29T03:32:47.979Z,1008.22
2018-05-29T03:33:47.971Z,1008.24
2018-05-29T03:34:47.955Z,1008.26
2018-05-29T03:35:47.948Z,1008.28
2018-05-29T03:36:47.929Z,1008.22
2018-05-29T03:37:47.922Z,1008.23
2018-05-29T03:38:47.899Z,1008.23
2018-05-29T03:39:47.893Z,1008.26
2018-05-29T03:40:47.880Z,1008.25
2018-05-29T03:41:47.870Z,1008.34
2018-05-29T03:42:47.856Z,1008.27
2018-05-29T03:43:47.843Z,1008.30
2018-05-29T03:44:47.830Z,1008.27
2018-05-29T03:45:47.819Z,1008.29
2018-05-29T03:46:47.805Z,1008.32
2018-05-29T03:47:47.792Z,1008.32
2018-05-29T03:48:47.779Z,1008.33
2018-05-29T03:49:47.766Z,1008.35
2018-05-29T03:50:47.756Z,1008.36
2018-05-29T03:51:47.743Z,1008.37
2018-05-29T03:52:47.731Z,1008.38
2018-05-29T03:53:47.717Z,1008.37
2018-05-29T03:54:47.704Z,1008.42
2018-05-29T03:55:47.696Z,1008.41
2018-05-29T03:56:47.680Z,1008.42
2018-05-29T03:57:47.668Z,1008.46
2018-05-29T03:58:47.656Z,1008.42
2018-05-29T03:59:47.650Z,1008.44
2018-05-29T04:00:47.631Z,1008.45
2018-05-29T04:01:47.617Z,1008.43
2018-05-29T04:02:47.605Z,1008.46
2018-05-29T04:03:47.594Z,1008.48
2018-05-29T04:04:47.583Z,1008.50
2018-05-29T04:05:47.569Z,1008.48
2018-05-29T04:06:47.556Z,1008.53
2018-05-29T04:07:47.544Z,1008.53
2018-05-29T04:08:47.533Z,1008.56
2018-05-29T04:09:47.520Z,1008.61
2018-05-29T04:10:47.506Z,1008.63
2018-05-29T04:11:47.496Z,1008.67
2018-05-29T04:12:47.483Z,1008.65
2018-05-29T04:13:47.469Z,1008.65
2018-05-29T04:14:47.456Z,1008.65
2018-05-29T04:15:47.480Z,1008.65
2018-05-29T04:16:47.430Z,1008.64
2018-05-29T04:17:47.418Z,1008.62
2018-05-29T04:18:47.412Z,1008.60
2018-05-29T04:19:47.394Z,1008.63
2018-05-29T04:20:47.383Z,1008.56
2018-05-29T04:21:47.368Z,1008.54
2018-05-29T04:22:47.357Z,1008.54
2018-05-29T04:23:47.344Z,1008.56
2018-05-29T04:24:47.331Z,1008.58
2018-05-29T04:25:47.320Z,1008.62
2018-05-29T04:26:47.307Z,1008.67
2018-05-29T04:27:47.294Z,1008.64
2018-05-29T04:28:47.283Z,1008.66
2018-05-29T04:29:47.272Z,1008.64
2018-05-29T04:30:47.255Z,1008.64
2018-05-29T04:31:47.245Z,1008.60
2018-05-29T04:32:47.232Z,1008.54
2018-05-29T04:33:47.218Z,1008.54
2018-05-29T04:34:47.207Z,1008.54
2018-05-29T04:35:47.199Z,1008.56
2018-05-29T04:36:47.181Z,1008.62
2018-05-29T04:37:47.169Z,1008.69
2018-05-29T04:38:47.156Z,1008.70
2018-05-29T04:39:47.143Z,1008.73
2018-05-29T04:40:47.132Z,1008.76
2018-05-29T04:41:47.117Z,1008.74
2018-05-29T04:42:47.105Z,1008.74
2018-05-29T04:43:47.139Z,1008.71
2018-05-29T04:44:47.085Z,1008.73
2018-05-29T04:45:47.067Z,1008.73
2018-05-29T04:46:47.055Z,1008.73
2018-05-29T04:47:47.043Z,1008.71
2018-05-29T04:48:47.029Z,1008.69
2018-05-29T04:49:47.017Z,1008.69
2018-05-29T04:50:47.005Z,1008.66
2018-05-29T04:51:46.995Z,1008.70
2018-05-29T04:52:46.982Z,1008.65
2018-05-29T04:53:46.965Z,1008.72
2018-05-29T04:54:46.957Z,1008.74
2018-05-29T04:55:46.942Z,1008.72
2018-05-29T04:56:46.929Z,1008.71
2018-05-29T04:57:46.916Z,1008.72
2018-05-29T04:58:46.903Z,1008.73
2018-05-29T04:59:46.891Z,1008.78
2018-05-29T05:00:46.878Z,1008.75
2018-05-29T05:01:46.864Z,1008.77
2018-05-29T05:02:46.852Z,1008.81
2018-05-29T05:03:46.842Z,1008.78
2018-05-29T05:04:46.828Z,1008.75
2018-05-29T05:05:46.816Z,1008.69
2018-05-29T05:06:46.802Z,1008.68
2018-05-29T05:07:46.789Z,1008.65
2018-05-29T05:08:46.779Z,1008.64
2018-05-29T05:09:46.765Z,1008.63
2018-05-29T05:10:46.753Z,1008.57
2018-05-29T05:11:46.740Z,1008.56
2018-05-29T05:12:46.729Z,1008.54
2018-05-29T05:13:46.715Z,1008.52
2018-05-29T05:14:46.701Z,1008.52
2018-05-29T05:15:46.689Z,1008.51
2018-05-29T05:16:46.677Z,1008.53
2018-05-29T05:17:46.663Z,1008.53
2018-05-29T05:18:46.653Z,1008.52
2018-05-29T05:19:46.636Z,1008.48
2018-05-29T05:20:46.625Z,1008.48
2018-05-29T05:21:46.616Z,1008.48
2018-05-29T05:22:46.604Z,1008.47
2018-05-29T05:23:46.587Z,1008.47
2018-05-29T05:24:46.575Z,1008.49
2018-05-29T05:25:46.562Z,1008.43
2018-05-29T05:26:46.549Z,1008.44
2018-05-29T05:27:46.536Z,1008.40
2018-05-29T05:28:46.523Z,1008.41
2018-05-29T05:29:46.512Z,1008.39
2018-05-29T05:30:46.499Z,1008.38
2018-05-29T05:31:46.485Z,1008.37
2018-05-29T05:32:46.474Z,1008.37
2018-05-29T05:33:46.460Z,1008.38
2018-05-29T05:34:46.449Z,1008.40
2018-05-29T05:35:46.436Z,1008.37
2018-05-29T05:36:46.425Z,1008.36
2018-05-29T05:40:17.977Z,1008.39
2018-05-29T05:41:17.951Z,1008.41
2018-05-29T05:43:10.821Z,1008.38
2018-05-29T05:44:10.792Z,1008.38
2018-05-29T05:46:03.664Z,1008.38
2018-05-29T05:47:03.640Z,1008.40
2018-05-29T05:48:56.509Z,1008.39
2018-05-29T05:49:56.482Z,1008.40
2018-05-29T05:51:49.360Z,1008.39
2018-05-29T05:52:49.403Z,1008.40
2018-05-29T05:53:49.329Z,1008.40
2018-05-29T05:54:49.317Z,1008.42
2018-05-29T05:55:49.304Z,1008.43
2018-05-29T05:56:49.291Z,1008.36
2018-05-29T05:57:49.278Z,1008.37
2018-05-29T05:58:49.266Z,1008.37
2018-05-29T05:59:49.252Z,1008.35
2018-05-29T06:00:49.239Z,1008.32
2018-05-29T06:03:20.823Z,1008.30
2018-05-29T06:04:20.795Z,1008.31
2018-05-29T06:06:13.674Z,1008.30
2018-05-29T06:07:13.644Z,1008.30
2018-05-29T06:09:06.513Z,1008.33
2018-05-29T06:10:06.494Z,1008.34
2018-05-29T06:11:59.363Z,1008.35
2018-05-29T06:12:59.339Z,1008.33
2018-05-29T06:14:52.208Z,1008.34
2018-05-29T06:15:52.188Z,1008.32
2018-05-29T06:17:45.353Z,1008.35
2018-05-29T06:18:45.035Z,1008.36
2018-05-29T06:20:38.093Z,1008.34
2018-05-29T06:21:37.881Z,1008.33
2018-05-29T06:23:30.742Z,1008.30
2018-05-29T06:24:30.724Z,1008.31
2018-05-29T06:26:23.581Z,1008.28
2018-05-29T06:27:23.565Z,1008.31
2018-05-29T06:29:16.432Z,1008.27
2018-05-29T06:30:16.416Z,1008.28
2018-05-29T06:32:09.275Z,1008.30
2018-05-29T06:33:09.260Z,1008.27
2018-05-29T06:34:09.246Z,1008.30
2018-05-29T06:35:09.239Z,1008.34
2018-05-29T06:36:09.220Z,1008.31
2018-05-29T06:37:09.215Z,1008.36
2018-05-29T06:38:09.211Z,1008.34
2018-05-29T06:39:09.182Z,1008.34
2018-05-29T06:40:09.173Z,1008.34
2018-05-29T06:41:09.157Z,1008.36
2018-05-29T06:42:09.145Z,1008.34
2018-05-29T06:43:09.131Z,1008.36
2018-05-29T06:44:09.119Z,1008.35
2018-05-29T06:45:09.182Z,1008.38
2018-05-29T06:46:09.096Z,1008.36
2018-05-29T06:47:09.083Z,1008.39
2018-05-29T06:48:09.074Z,1008.38
2018-05-29T06:49:09.057Z,1008.35
2018-05-29T06:50:09.044Z,1008.40
2018-05-29T06:51:09.033Z,1008.39
2018-05-29T06:52:09.019Z,1008.43
2018-05-29T06:53:09.005Z,1008.45
2018-05-29T06:54:08.995Z,1008.46
2018-05-29T06:55:08.979Z,1008.45
2018-05-29T06:56:08.968Z,1008.45
2018-05-29T06:57:08.955Z,1008.43
2018-05-29T06:58:16.086Z,1008.42
2018-05-29T07:00:01.812Z,1008.47
2018-05-29T07:01:01.787Z,1008.44
2018-05-29T07:02:54.652Z,1008.44
2018-05-29T07:03:54.641Z,1008.43
2018-05-29T07:05:54.644Z,1008.43
2018-05-29T07:06:47.481Z,1008.43
2018-05-29T07:08:40.344Z,1008.40
2018-05-29T07:09:40.328Z,1008.39
2018-05-29T07:11:33.204Z,1008.36
2018-05-29T07:12:33.176Z,1008.33
2018-05-29T07:14:26.036Z,1008.32
2018-05-29T07:15:26.023Z,1008.30
2018-05-29T07:17:18.890Z,1008.28
2018-05-29T07:18:18.866Z,1008.29
2018-05-29T07:20:11.734Z,1008.28
2018-05-29T07:21:11.713Z,1008.27
2018-05-29T07:23:04.590Z,1008.29
2018-05-29T07:24:04.565Z,1008.29
2018-05-29T07:25:57.432Z,1008.32
2018-05-29T07:26:57.417Z,1008.27
2018-05-29T07:28:50.537Z,1008.28
2018-05-29T07:29:50.262Z,1008.26
2018-05-29T07:31:43.127Z,1008.26
2018-05-29T07:32:43.112Z,1008.27
2018-05-29T07:34:35.987Z,1008.30
2018-05-29T07:35:35.963Z,1008.31
2018-05-29T07:36:35.949Z,1008.29
2018-05-29T07:37:35.938Z,1008.27
2018-05-29T07:38:35.925Z,1008.25
2018-05-29T07:39:35.912Z,1008.25
2018-05-29T07:40:35.897Z,1008.21
2018-05-29T07:41:35.884Z,1008.20
2018-05-29T07:42:35.872Z,1008.22
2018-05-29T07:43:35.867Z,1008.20
2018-05-29T07:44:35.846Z,1008.18
2018-05-29T07:45:35.834Z,1008.14
2018-05-29T07:46:35.822Z,1008.14
2018-05-29T07:47:35.810Z,1008.15
2018-05-29T07:48:35.801Z,1008.10
2018-05-29T07:49:35.785Z,1008.08
2018-05-29T07:50:35.770Z,1008.04
2018-05-29T07:51:35.758Z,1008.02
2018-05-29T07:52:35.748Z,1008.00
2018-05-29T07:53:35.739Z,1008.02
2018-05-29T07:54:35.720Z,1008.02
2018-05-29T07:55:35.709Z,1007.99
2018-05-29T07:56:35.694Z,1008.01
2018-05-29T07:57:35.683Z,1007.99
2018-05-29T07:58:35.672Z,1008.00
2018-05-29T07:59:35.657Z,1007.98
2018-05-29T08:00:35.648Z,1008.00
2018-05-29T08:01:35.635Z,1007.96
2018-05-29T08:02:35.621Z,1007.96
2018-05-29T08:03:35.610Z,1007.93
2018-05-29T08:04:35.595Z,1007.95
2018-05-29T08:05:35.583Z,1007.91
2018-05-29T08:06:35.569Z,1007.94
2018-05-29T08:07:35.558Z,1007.91
2018-05-29T08:08:35.546Z,1007.93
2018-05-29T08:09:35.534Z,1007.90
2018-05-29T08:10:35.576Z,1007.94
2018-05-29T08:11:35.508Z,1007.85
2018-05-29T08:12:35.494Z,1007.90
2018-05-29T08:13:35.481Z,1007.90
2018-05-29T08:14:35.467Z,1007.91
2018-05-29T08:15:35.456Z,1007.85
2018-05-29T08:16:35.444Z,1007.87
2018-05-29T08:17:35.430Z,1007.87
2018-05-29T08:18:35.474Z,1007.84
2018-05-29T08:19:35.409Z,1007.85
2018-05-29T08:20:35.391Z,1007.82
2018-05-29T08:21:42.526Z,1007.81
2018-05-29T08:23:28.257Z,1007.82
2018-05-29T08:24:28.230Z,1007.83
2018-05-29T08:26:21.090Z,1007.80
2018-05-29T08:27:21.078Z,1007.80
2018-05-29T08:29:14.028Z,1007.81
2018-05-29T08:30:13.921Z,1007.79
2018-05-29T08:32:06.786Z,1007.75
2018-05-29T08:33:06.772Z,1007.77
2018-05-29T08:34:59.638Z,1007.78
2018-05-29T08:35:59.617Z,1007.71
2018-05-29T08:37:52.476Z,1007.69
2018-05-29T08:38:52.461Z,1007.68
2018-05-29T08:40:45.342Z,1007.70
2018-05-29T08:41:45.313Z,1007.66
2018-05-29T08:43:38.186Z,1007.62
2018-05-29T08:44:38.165Z,1007.64
2018-05-29T08:46:31.282Z,1007.65
2018-05-29T08:47:31.010Z,1007.59
2018-05-29T08:49:23.868Z,1007.64
2018-05-29T08:50:23.852Z,1007.61
2018-05-29T08:52:16.729Z,1007.61
2018-05-29T08:53:16.703Z,1007.56
2018-05-29T08:55:09.570Z,1007.57
2018-05-29T08:56:09.552Z,1007.61
2018-05-29T08:58:02.428Z,1007.56
2018-05-29T08:59:09.549Z,1007.56
2018-05-29T09:00:55.264Z,1007.55
2018-05-29T09:01:55.250Z,1007.59
2018-05-29T09:03:48.121Z,1007.56
2018-05-29T09:04:48.096Z,1007.57
2018-05-29T09:06:40.951Z,1007.54
2018-05-29T09:07:40.945Z,1007.53
2018-05-29T09:09:33.821Z,1007.55
2018-05-29T09:10:33.792Z,1007.48
2018-05-29T09:12:26.654Z,1007.46
2018-05-29T09:13:26.639Z,1007.48
2018-05-29T09:15:19.507Z,1007.44
2018-05-29T09:16:19.485Z,1007.40
2018-05-29T09:18:12.353Z,1007.39
2018-05-29T09:19:12.336Z,1007.36
2018-05-29T09:21:05.207Z,1007.32
2018-05-29T09:22:05.181Z,1007.32
2018-05-29T09:23:58.046Z,1007.30
2018-05-29T09:24:58.040Z,1007.27
2018-05-29T09:26:50.897Z,1007.26
2018-05-29T09:27:50.874Z,1007.24
2018-05-29T09:29:43.819Z,1007.17
2018-05-29T09:30:43.727Z,1007.22
2018-05-29T09:32:36.604Z,1007.22
2018-05-29T09:33:36.576Z,1007.25
2018-05-29T09:35:29.472Z,1007.23
2018-05-29T09:36:29.425Z,1007.22
2018-05-29T09:38:22.560Z,1007.23
2018-05-29T09:39:22.288Z,1007.20
2018-05-29T09:41:15.148Z,1007.17
2018-05-29T09:42:15.132Z,1007.19
2018-05-29T09:44:07.999Z,1007.17
2018-05-29T09:45:07.979Z,1007.17
2018-05-29T09:47:00.837Z,1007.14
2018-05-29T09:48:00.820Z,1007.07
2018-05-29T09:49:53.716Z,1007.13
2018-05-29T09:50:53.690Z,1007.11
2018-05-29T09:52:46.574Z,1007.12
2018-05-29T09:53:46.535Z,1007.07
2018-05-29T09:55:39.759Z,1007.09
2018-05-29T09:56:39.384Z,1007.07
2018-05-29T09:58:32.250Z,1007.03
2018-05-29T09:59:32.235Z,1007.06
2018-05-29T10:01:25.107Z,1007.04
2018-05-29T10:02:25.086Z,1007.04
2018-05-29T10:04:25.076Z,1007.02
2018-05-29T10:05:17.933Z,1007.03
2018-05-29T10:07:10.817Z,1007.01
2018-05-29T10:08:10.785Z,1006.99
2018-05-29T10:10:03.651Z,1007.02
2018-05-29T10:11:03.632Z,1007.02
2018-05-29T10:12:56.506Z,1007.00
2018-05-29T10:13:56.479Z,1007.00
2018-05-29T10:15:49.353Z,1006.97
2018-05-29T10:16:49.336Z,1006.98
2018-05-29T10:18:42.213Z,1006.97
2018-05-29T10:19:49.325Z,1006.98
2018-05-29T10:21:35.051Z,1006.93
2018-05-29T10:22:35.034Z,1006.97
2018-05-29T10:24:27.910Z,1006.96
2018-05-29T10:25:27.886Z,1006.93
2018-05-29T10:27:20.826Z,1006.97
2018-05-29T10:28:20.737Z,1006.98
2018-05-29T10:30:13.622Z,1007.00
2018-05-29T10:31:13.593Z,1007.00
2018-05-29T10:33:06.462Z,1007.01
2018-05-29T10:34:06.446Z,1006.97
2018-05-29T10:35:59.314Z,1006.98
2018-05-29T10:36:59.294Z,1006.93
2018-05-29T10:38:52.154Z,1006.95
2018-05-29T10:39:52.139Z,1006.99
2018-05-29T10:41:45.008Z,1006.92
2018-05-29T10:42:44.984Z,1006.90
2018-05-29T10:44:37.863Z,1006.98
2018-05-29T10:45:37.849Z,1006.96
2018-05-29T10:46:37.832Z,1006.93
2018-05-29T10:47:37.819Z,1006.96
2018-05-29T10:48:37.809Z,1006.94
2018-05-29T10:49:37.797Z,1006.94
2018-05-29T10:50:37.785Z,1006.97
2018-05-29T10:51:37.779Z,1006.95
2018-05-29T10:52:37.764Z,1006.93
2018-05-29T10:53:37.749Z,1006.96
2018-05-29T10:54:37.738Z,1006.91
2018-05-29T10:55:44.863Z,1006.90
2018-05-29T10:59:09.308Z,1006.81
2018-05-29T11:00:02.141Z,1006.87
2018-05-29T11:01:55.003Z,1006.85
2018-05-29T11:02:54.991Z,1006.86
2018-05-29T11:04:47.868Z,1006.82
2018-05-29T11:05:47.837Z,1006.81
2018-05-29T11:07:40.704Z,1006.81
2018-05-29T11:08:40.687Z,1006.79
2018-05-29T11:10:33.570Z,1006.80
2018-05-29T11:11:40.684Z,1006.75
2018-05-29T11:13:26.402Z,1006.77
2018-05-29T11:14:26.387Z,1006.72
2018-05-29T11:16:19.270Z,1006.72
2018-05-29T11:17:19.246Z,1006.70
2018-05-29T11:19:12.105Z,1006.69
2018-05-29T11:20:12.092Z,1006.71
2018-05-29T11:21:12.078Z,1006.67
2018-05-29T11:22:12.067Z,1006.66
2018-05-29T11:23:12.052Z,1006.63
2018-05-29T11:24:12.039Z,1006.61
2018-05-29T11:25:12.029Z,1006.65
2018-05-29T11:26:19.153Z,1006.61
2018-05-29T11:28:04.885Z,1006.59
2018-05-29T11:29:04.860Z,1006.55
2018-05-29T11:30:57.730Z,1006.56
2018-05-29T11:31:57.712Z,1006.51
2018-05-29T11:33:50.885Z,1006.50
2018-05-29T11:34:50.563Z,1006.43
2018-05-29T11:36:43.427Z,1006.46
2018-05-29T11:37:43.410Z,1006.40
2018-05-29T11:39:36.283Z,1006.34
2018-05-29T11:40:36.260Z,1006.34
2018-05-29T11:42:29.193Z,1006.27
2018-05-29T11:43:29.197Z,1006.31
2018-05-29T11:45:21.987Z,1006.23
2018-05-29T11:46:21.965Z,1006.26
2018-05-29T11:48:14.825Z,1006.20
2018-05-29T11:49:14.807Z,1006.17
2018-05-29T11:51:07.683Z,1006.16
2018-05-29T11:52:07.656Z,1006.16
2018-05-29T11:54:00.520Z,1006.10
2018-05-29T11:55:00.539Z,1006.12
2018-05-29T11:56:53.389Z,1006.08
2018-05-29T11:57:53.360Z,1006.06
2018-05-29T11:59:46.227Z,1006.05
2018-05-29T12:00:46.210Z,1006.01
2018-05-29T12:02:39.088Z,1005.97
2018-05-29T12:03:39.064Z,1005.95
2018-05-29T12:04:39.050Z,1005.93
2018-05-29T12:05:39.038Z,1005.89
2018-05-29T12:06:39.027Z,1005.87
2018-05-29T12:07:39.022Z,1005.82
2018-05-29T12:08:39.002Z,1005.80
2018-05-29T12:09:38.988Z,1005.82
2018-05-29T12:10:38.975Z,1005.80
2018-05-29T12:11:38.963Z,1005.80
2018-05-29T12:12:38.951Z,1005.81
2018-05-29T12:13:38.941Z,1005.78
2018-05-29T12:14:38.928Z,1005.77
2018-05-29T12:15:38.914Z,1005.76
2018-05-29T12:16:38.904Z,1005.77
2018-05-29T12:17:38.891Z,1005.75
2018-05-29T12:20:10.485Z,1005.74
2018-05-29T12:21:10.455Z,1005.76
2018-05-29T12:23:03.322Z,1005.77
2018-05-29T12:24:03.306Z,1005.80
2018-05-29T12:25:56.190Z,1005.83
2018-05-29T12:26:56.156Z,1005.85
2018-05-29T12:27:56.145Z,1005.85
2018-05-29T12:28:56.142Z,1005.84
2018-05-29T12:29:56.120Z,1005.91
2018-05-29T12:30:56.110Z,1005.93
2018-05-29T12:31:56.095Z,1005.96
2018-05-29T12:32:56.083Z,1005.99
2018-05-29T12:33:56.072Z,1006.07
2018-05-29T12:34:56.060Z,1006.08
2018-05-29T12:35:56.048Z,1006.10
2018-05-29T12:37:03.181Z,1006.06
2018-05-29T12:38:48.906Z,1006.06
2018-05-29T12:39:48.880Z,1006.07
2018-05-29T12:41:41.746Z,1006.06
2018-05-29T12:42:41.728Z,1006.05
2018-05-29T12:44:34.599Z,1006.04
2018-05-29T12:45:34.574Z,1006.00
2018-05-29T12:46:34.562Z,1006.01
2018-05-29T12:47:34.550Z,1005.98
2018-05-29T12:48:34.540Z,1005.93
2018-05-29T12:49:34.530Z,1005.95
2018-05-29T12:50:34.515Z,1005.92
2018-05-29T12:51:34.507Z,1005.95
2018-05-29T12:54:06.095Z,1005.91
2018-05-29T12:55:06.066Z,1005.91
2018-05-29T12:56:58.942Z,1005.92
2018-05-29T12:58:06.073Z,1005.92
2018-05-29T12:59:51.793Z,1005.90
2018-05-29T13:00:51.765Z,1005.89
2018-05-29T13:01:51.750Z,1005.90
2018-05-29T13:02:51.738Z,1005.91
2018-05-29T13:03:51.727Z,1005.92
2018-05-29T13:04:51.725Z,1005.85
2018-05-29T13:05:51.701Z,1005.85
2018-05-29T13:06:51.689Z,1005.88
2018-05-29T13:07:51.679Z,1005.86
2018-05-29T13:08:51.665Z,1005.84
2018-05-29T13:09:51.654Z,1005.81
2018-05-29T13:10:51.638Z,1005.80
2018-05-29T13:11:51.626Z,1005.76
2018-05-29T13:12:51.615Z,1005.75
2018-05-29T13:13:51.604Z,1005.72
2018-05-29T13:14:51.592Z,1005.66
2018-05-29T13:15:51.578Z,1005.64
2018-05-29T13:16:51.569Z,1005.57
2018-05-29T13:17:51.556Z,1005.53
2018-05-29T13:18:51.541Z,1005.52
2018-05-29T13:19:51.531Z,1005.53
2018-05-29T13:20:51.521Z,1005.53
2018-05-29T13:21:51.506Z,1005.58
2018-05-29T13:22:51.493Z,1005.65
2018-05-29T13:23:58.625Z,1005.70
2018-05-29T13:25:44.356Z,1005.71
2018-05-29T13:26:44.335Z,1005.73
2018-05-29T13:28:37.214Z,1005.68
2018-05-29T13:29:44.320Z,1005.66
2018-05-29T13:31:30.045Z,1005.49
2018-05-29T13:32:30.051Z,1005.38
2018-05-29T13:34:22.917Z,1005.21
2018-05-29T13:35:22.889Z,1005.14
2018-05-29T13:37:15.755Z,1005.13
2018-05-29T13:38:15.739Z,1005.17
2018-05-29T13:40:08.611Z,1005.27
2018-05-29T13:41:08.594Z,1005.41
2018-05-29T13:43:01.458Z,1005.58
2018-05-29T13:44:01.439Z,1005.70
2018-05-29T13:45:54.309Z,1005.79
2018-05-29T13:46:54.288Z,1005.86
2018-05-29T13:48:47.149Z,1005.91
2018-05-29T13:49:47.136Z,1006.01
2018-05-29T13:51:40.009Z,1006.01
2018-05-29T13:52:39.979Z,1006.11
2018-05-29T13:54:32.850Z,1006.26
2018-05-29T13:55:32.829Z,1006.27
2018-05-29T13:57:25.704Z,1006.50